NOZ1053 EPGD-ENGM
Flight info
| Callsign | NOZ1053 |
|---|---|
| Flight time | 1h 19m |
| Altitude | 34000 |
| Route | VAPOS N133 PENOR DCT LAGIS DCT KSD Z259 ESEBA |
| Aircraft | B738/M-SDE2E3FGHIRWXY/LB1 |
Departure
| Time | 2026-04-30 10:23 |
|---|---|
| Airport | Gdańsk Lech Wałęsa Airport (EPGD) |
Arrival
| Time | 2026-04-30 11:43 |
|---|---|
| Airport | Oslo-Gardermoen International Airport (ENGM) |
| Time | Latitude | Longitude | Altitude | Speed | Heading |
|---|---|---|---|---|---|
| 2026-04-30 09:58 | 54.38117 | 18.46615 | 494 ft | 0 kts | 23° |
| 2026-04-30 10:13 | 54.38111 | 18.46611 | 493 ft | 2 kts | 23° |
| 2026-04-30 10:14 | 54.38097 | 18.46601 | 493 ft | 2 kts | 23° |
| 2026-04-30 10:14 | 54.38084 | 18.46588 | 493 ft | 2 kts | 56° |
| 2026-04-30 10:14 | 54.38081 | 18.46549 | 493 ft | 1 kts | 114° |
| 2026-04-30 10:15 | 54.38084 | 18.46540 | 493 ft | 0 kts | 113° |
| 2026-04-30 10:17 | 54.38073 | 18.46583 | 493 ft | 6 kts | 114° |
| 2026-04-30 10:17 | 54.38030 | 18.46610 | 493 ft | 8 kts | 200° |
| 2026-04-30 10:18 | 54.37968 | 18.46577 | 493 ft | 10 kts | 174° |
| 2026-04-30 10:18 | 54.37917 | 18.46692 | 493 ft | 16 kts | 113° |
| 2026-04-30 10:18 | 54.37869 | 18.46885 | 493 ft | 18 kts | 112° |
| 2026-04-30 10:19 | 54.37764 | 18.47309 | 493 ft | 18 kts | 113° |
| 2026-04-30 10:19 | 54.37713 | 18.47513 | 493 ft | 18 kts | 113° |
| 2026-04-30 10:19 | 54.37664 | 18.47710 | 493 ft | 17 kts | 112° |
| 2026-04-30 10:19 | 54.37616 | 18.47900 | 493 ft | 17 kts | 112° |
| 2026-04-30 10:20 | 54.37571 | 18.48083 | 493 ft | 16 kts | 112° |
| 2026-04-30 10:20 | 54.37485 | 18.48430 | 493 ft | 15 kts | 112° |
| 2026-04-30 10:20 | 54.37443 | 18.48595 | 493 ft | 14 kts | 112° |
| 2026-04-30 10:21 | 54.37405 | 18.48751 | 494 ft | 14 kts | 112° |
| 2026-04-30 10:21 | 54.37366 | 18.48904 | 493 ft | 14 kts | 112° |
| 2026-04-30 10:21 | 54.37327 | 18.49058 | 493 ft | 14 kts | 113° |
| 2026-04-30 10:21 | 54.37253 | 18.49138 | 493 ft | 13 kts | 193° |
| 2026-04-30 10:22 | 54.37173 | 18.49059 | 494 ft | 13 kts | 239° |
| 2026-04-30 10:22 | 54.37189 | 18.48910 | 493 ft | 13 kts | 294° |
| 2026-04-30 10:22 | 54.37228 | 18.48751 | 493 ft | 21 kts | 292° |
| 2026-04-30 10:22 | 54.37378 | 18.48147 | 494 ft | 87 kts | 292° |
| 2026-04-30 10:23 | 54.37691 | 18.46890 | 494 ft | 141 kts | 292° |
| 2026-04-30 10:23 | 54.38127 | 18.45154 | 731 ft | 163 kts | 292° |
| 2026-04-30 10:23 | 54.38559 | 18.43529 | 1571 ft | 150 kts | 293° |
| 2026-04-30 10:23 | 54.39011 | 18.41795 | 1973 ft | 167 kts | 294° |
| 2026-04-30 10:24 | 54.39481 | 18.40011 | 2564 ft | 168 kts | 295° |
| 2026-04-30 10:24 | 54.39973 | 18.38091 | 2919 ft | 184 kts | 294° |
| 2026-04-30 10:24 | 54.40493 | 18.35944 | 3288 ft | 202 kts | 294° |
| 2026-04-30 10:24 | 54.41022 | 18.33640 | 3706 ft | 219 kts | 294° |
| 2026-04-30 10:25 | 54.41621 | 18.31119 | 4182 ft | 234 kts | 295° |
| 2026-04-30 10:25 | 54.42276 | 18.28502 | 4680 ft | 247 kts | 299° |
| 2026-04-30 10:25 | 54.43234 | 18.26055 | 5240 ft | 252 kts | 319° |
| 2026-04-30 10:25 | 54.44640 | 18.24338 | 6026 ft | 249 kts | 333° |
| 2026-04-30 10:26 | 54.46146 | 18.22910 | 6786 ft | 251 kts | 334° |
| 2026-04-30 10:26 | 54.47666 | 18.21435 | 7509 ft | 254 kts | 333° |
| 2026-04-30 10:26 | 54.49190 | 18.19876 | 8252 ft | 256 kts | 333° |
| 2026-04-30 10:26 | 54.50706 | 18.18277 | 8991 ft | 258 kts | 333° |
| 2026-04-30 10:27 | 54.52234 | 18.16652 | 9668 ft | 262 kts | 333° |
| 2026-04-30 10:27 | 54.53770 | 18.15018 | 10339 ft | 265 kts | 333° |
| 2026-04-30 10:27 | 54.55347 | 18.13343 | 10899 ft | 272 kts | 334° |
| 2026-04-30 10:27 | 54.56992 | 18.11605 | 11254 ft | 287 kts | 334° |
| 2026-04-30 10:28 | 54.58727 | 18.09768 | 11641 ft | 300 kts | 333° |
| 2026-04-30 10:28 | 54.60496 | 18.07745 | 11955 ft | 317 kts | 330° |
| 2026-04-30 10:28 | 54.62323 | 18.05438 | 12386 ft | 329 kts | 328° |
| 2026-04-30 10:28 | 54.64116 | 18.03054 | 13018 ft | 333 kts | 328° |
| 2026-04-30 10:29 | 54.65951 | 18.00595 | 13657 ft | 338 kts | 328° |
| 2026-04-30 10:29 | 54.67821 | 17.98100 | 14370 ft | 340 kts | 328° |
| 2026-04-30 10:29 | 54.69687 | 17.95631 | 15089 ft | 342 kts | 329° |
| 2026-04-30 10:29 | 54.71569 | 17.93155 | 15750 ft | 345 kts | 329° |
| 2026-04-30 10:30 | 54.73490 | 17.90632 | 16489 ft | 346 kts | 329° |
| 2026-04-30 10:30 | 54.75389 | 17.88136 | 17113 ft | 349 kts | 329° |
| 2026-04-30 10:30 | 54.77334 | 17.85594 | 17763 ft | 352 kts | 330° |
| 2026-04-30 10:30 | 54.79325 | 17.83174 | 18360 ft | 353 kts | 334° |
| 2026-04-30 10:31 | 54.81441 | 17.81064 | 18948 ft | 352 kts | 339° |
| 2026-04-30 10:31 | 54.83627 | 17.79234 | 19652 ft | 350 kts | 342° |
| 2026-04-30 10:31 | 54.85854 | 17.77510 | 20212 ft | 353 kts | 343° |
| 2026-04-30 10:31 | 54.88093 | 17.75807 | 20847 ft | 353 kts | 343° |
| 2026-04-30 10:32 | 54.90349 | 17.74087 | 21379 ft | 357 kts | 343° |
| 2026-04-30 10:32 | 54.92639 | 17.72325 | 21908 ft | 361 kts | 343° |
| 2026-04-30 10:32 | 54.94907 | 17.70557 | 22475 ft | 362 kts | 343° |
| 2026-04-30 10:32 | 54.97211 | 17.68752 | 22977 ft | 365 kts | 343° |
| 2026-04-30 10:33 | 54.99503 | 17.66965 | 23518 ft | 365 kts | 343° |
| 2026-04-30 10:33 | 55.01846 | 17.65173 | 24036 ft | 367 kts | 344° |
| 2026-04-30 10:33 | 55.04158 | 17.63420 | 24477 ft | 370 kts | 344° |
| 2026-04-30 10:33 | 55.06520 | 17.61630 | 24911 ft | 374 kts | 344° |
| 2026-04-30 10:34 | 55.08919 | 17.59808 | 25347 ft | 377 kts | 344° |
| 2026-04-30 10:34 | 55.11317 | 17.57979 | 25827 ft | 379 kts | 344° |
| 2026-04-30 10:34 | 55.13743 | 17.56122 | 26319 ft | 381 kts | 344° |
| 2026-04-30 10:34 | 55.16152 | 17.54274 | 26753 ft | 384 kts | 344° |
| 2026-04-30 10:35 | 55.18595 | 17.52396 | 27278 ft | 385 kts | 344° |
| 2026-04-30 10:35 | 55.21055 | 17.50497 | 27785 ft | 385 kts | 344° |
| 2026-04-30 10:35 | 55.23526 | 17.48568 | 28216 ft | 388 kts | 344° |
| 2026-04-30 10:35 | 55.26027 | 17.46588 | 28631 ft | 391 kts | 343° |
| 2026-04-30 10:36 | 55.28516 | 17.44605 | 28964 ft | 395 kts | 344° |
| 2026-04-30 10:36 | 55.31045 | 17.42583 | 29412 ft | 396 kts | 343° |
| 2026-04-30 10:36 | 55.33553 | 17.40579 | 29763 ft | 399 kts | 343° |
| 2026-04-30 10:36 | 55.36082 | 17.38553 | 30215 ft | 399 kts | 344° |
| 2026-04-30 10:37 | 55.38618 | 17.36519 | 30570 ft | 402 kts | 344° |
| 2026-04-30 10:37 | 55.41150 | 17.34489 | 30984 ft | 402 kts | 343° |
| 2026-04-30 10:37 | 55.43675 | 17.32455 | 31574 ft | 397 kts | 343° |
| 2026-04-30 10:37 | 55.46172 | 17.30440 | 32075 ft | 395 kts | 343° |
| 2026-04-30 10:38 | 55.48658 | 17.28437 | 32408 ft | 396 kts | 343° |
| 2026-04-30 10:38 | 55.51148 | 17.26431 | 32713 ft | 397 kts | 343° |
| 2026-04-30 10:38 | 55.53641 | 17.24424 | 33038 ft | 398 kts | 343° |
| 2026-04-30 10:38 | 55.56142 | 17.22408 | 33438 ft | 397 kts | 343° |
| 2026-04-30 10:39 | 55.58639 | 17.20391 | 33799 ft | 396 kts | 343° |
| 2026-04-30 10:39 | 55.61137 | 17.18347 | 34227 ft | 394 kts | 342° |
| 2026-04-30 10:39 | 55.63573 | 17.16104 | 34383 ft | 400 kts | 338° |
| 2026-04-30 10:39 | 55.65935 | 17.13506 | 34376 ft | 406 kts | 335° |
| 2026-04-30 10:40 | 55.70532 | 17.07703 | 34378 ft | 409 kts | 332° |
| 2026-04-30 10:40 | 55.75126 | 17.01865 | 34371 ft | 402 kts | 337° |
| 2026-04-30 10:41 | 55.80063 | 16.97431 | 34368 ft | 396 kts | 343° |
| 2026-04-30 10:41 | 55.85080 | 16.93369 | 34363 ft | 398 kts | 342° |
| 2026-04-30 10:42 | 55.90067 | 16.89164 | 34363 ft | 398 kts | 341° |
| 2026-04-30 10:42 | 55.95005 | 16.84842 | 34366 ft | 401 kts | 341° |
| 2026-04-30 10:43 | 55.99962 | 16.80409 | 34363 ft | 398 kts | 341° |
| 2026-04-30 10:43 | 56.04903 | 16.75953 | 34359 ft | 401 kts | 341° |
| 2026-04-30 10:44 | 56.09877 | 16.71440 | 34359 ft | 401 kts | 340° |
| 2026-04-30 10:44 | 56.14825 | 16.66937 | 34362 ft | 401 kts | 340° |
| 2026-04-30 10:45 | 56.19780 | 16.62414 | 34361 ft | 401 kts | 340° |
| 2026-04-30 10:45 | 56.24749 | 16.57860 | 34363 ft | 400 kts | 340° |
| 2026-04-30 10:46 | 56.29722 | 16.53298 | 34362 ft | 401 kts | 340° |
| 2026-04-30 10:46 | 56.34676 | 16.48736 | 34357 ft | 401 kts | 340° |
| 2026-04-30 10:47 | 56.39665 | 16.44129 | 34352 ft | 401 kts | 340° |
| 2026-04-30 10:47 | 56.44639 | 16.39523 | 34352 ft | 402 kts | 340° |
| 2026-04-30 10:48 | 56.49596 | 16.34918 | 34350 ft | 403 kts | 339° |
| 2026-04-30 10:48 | 56.54563 | 16.30290 | 34341 ft | 402 kts | 339° |
| 2026-04-30 10:49 | 56.59513 | 16.25664 | 34340 ft | 403 kts | 339° |
| 2026-04-30 10:49 | 56.64485 | 16.21005 | 34343 ft | 403 kts | 339° |
| 2026-04-30 10:50 | 56.69465 | 16.16326 | 34337 ft | 403 kts | 338° |
| 2026-04-30 10:50 | 56.74424 | 16.11649 | 34345 ft | 403 kts | 338° |
| 2026-04-30 10:51 | 56.79384 | 16.06955 | 34343 ft | 402 kts | 338° |
| 2026-04-30 10:51 | 56.84330 | 16.02266 | 34340 ft | 403 kts | 338° |
| 2026-04-30 10:52 | 56.89323 | 15.97516 | 34344 ft | 404 kts | 338° |
| 2026-04-30 10:52 | 56.94253 | 15.92812 | 34344 ft | 404 kts | 338° |
| 2026-04-30 10:53 | 56.99270 | 15.88008 | 34344 ft | 404 kts | 338° |
| 2026-04-30 10:53 | 57.04269 | 15.83208 | 34344 ft | 403 kts | 338° |
| 2026-04-30 10:54 | 57.09251 | 15.78411 | 34347 ft | 404 kts | 338° |
| 2026-04-30 10:54 | 57.14222 | 15.73611 | 34347 ft | 403 kts | 337° |
| 2026-04-30 10:55 | 57.19191 | 15.68798 | 34347 ft | 403 kts | 337° |
| 2026-04-30 10:55 | 57.24183 | 15.63947 | 34348 ft | 404 kts | 337° |
| 2026-04-30 10:56 | 57.29123 | 15.59131 | 34348 ft | 405 kts | 337° |
| 2026-04-30 10:56 | 57.34140 | 15.54226 | 34348 ft | 405 kts | 337° |
| 2026-04-30 10:57 | 57.39074 | 15.49387 | 34347 ft | 404 kts | 337° |
| 2026-04-30 10:57 | 57.44040 | 15.44502 | 34349 ft | 406 kts | 337° |
| 2026-04-30 10:58 | 57.49059 | 15.39551 | 34353 ft | 406 kts | 337° |
| 2026-04-30 10:58 | 57.54038 | 15.34622 | 34356 ft | 407 kts | 336° |
| 2026-04-30 10:59 | 57.59097 | 15.29594 | 34354 ft | 407 kts | 336° |
| 2026-04-30 10:59 | 57.64147 | 15.24563 | 34357 ft | 408 kts | 336° |
| 2026-04-30 11:00 | 57.69190 | 15.19523 | 34360 ft | 409 kts | 336° |
| 2026-04-30 11:00 | 57.74202 | 15.14498 | 34353 ft | 408 kts | 335° |
| 2026-04-30 11:01 | 57.79174 | 15.09489 | 34365 ft | 409 kts | 335° |
| 2026-04-30 11:01 | 57.84165 | 15.04455 | 34367 ft | 407 kts | 335° |
| 2026-04-30 11:02 | 57.89164 | 14.99401 | 34370 ft | 409 kts | 335° |
| 2026-04-30 11:02 | 57.94198 | 14.94295 | 34367 ft | 410 kts | 335° |
| 2026-04-30 11:03 | 57.99211 | 14.89189 | 34369 ft | 411 kts | 335° |
| 2026-04-30 11:04 | 58.06742 | 14.81487 | 34358 ft | 409 kts | 335° |
| 2026-04-30 11:04 | 58.11731 | 14.76363 | 34354 ft | 409 kts | 335° |
| 2026-04-30 11:05 | 58.16761 | 14.71182 | 34353 ft | 410 kts | 335° |
| 2026-04-30 11:05 | 58.21761 | 14.66017 | 34354 ft | 410 kts | 335° |
| 2026-04-30 11:06 | 58.26754 | 14.60843 | 34223 ft | 412 kts | 334° |
| 2026-04-30 11:06 | 58.29242 | 14.58259 | 33948 ft | 409 kts | 335° |
| 2026-04-30 11:06 | 58.31743 | 14.55653 | 33684 ft | 405 kts | 334° |
| 2026-04-30 11:06 | 58.34186 | 14.53104 | 33423 ft | 402 kts | 334° |
| 2026-04-30 11:07 | 58.36613 | 14.50569 | 33164 ft | 401 kts | 334° |
| 2026-04-30 11:07 | 58.39077 | 14.47994 | 32901 ft | 401 kts | 334° |
| 2026-04-30 11:07 | 58.41514 | 14.45441 | 32640 ft | 400 kts | 334° |
| 2026-04-30 11:07 | 58.43940 | 14.42896 | 32377 ft | 398 kts | 334° |
| 2026-04-30 11:08 | 58.46386 | 14.40325 | 32112 ft | 396 kts | 334° |
| 2026-04-30 11:08 | 58.48790 | 14.37794 | 31850 ft | 395 kts | 334° |
| 2026-04-30 11:08 | 58.51177 | 14.35278 | 31590 ft | 394 kts | 334° |
| 2026-04-30 11:08 | 58.53567 | 14.32754 | 31327 ft | 392 kts | 333° |
| 2026-04-30 11:09 | 58.55963 | 14.30221 | 31064 ft | 391 kts | 333° |
| 2026-04-30 11:09 | 58.58338 | 14.27706 | 30802 ft | 389 kts | 333° |
| 2026-04-30 11:09 | 58.60681 | 14.25220 | 30535 ft | 387 kts | 333° |
| 2026-04-30 11:09 | 58.63013 | 14.22745 | 30264 ft | 386 kts | 333° |
| 2026-04-30 11:10 | 58.65360 | 14.20251 | 29992 ft | 386 kts | 333° |
| 2026-04-30 11:10 | 58.67699 | 14.17760 | 29722 ft | 385 kts | 333° |
| 2026-04-30 11:10 | 58.70036 | 14.15269 | 29476 ft | 382 kts | 333° |
| 2026-04-30 11:10 | 58.72363 | 14.12781 | 29254 ft | 381 kts | 333° |
| 2026-04-30 11:11 | 58.74670 | 14.10312 | 29037 ft | 381 kts | 333° |
| 2026-04-30 11:11 | 58.76992 | 14.07825 | 28818 ft | 380 kts | 333° |
| 2026-04-30 11:11 | 58.79283 | 14.05367 | 28599 ft | 378 kts | 333° |
| 2026-04-30 11:11 | 58.81583 | 14.02893 | 28380 ft | 378 kts | 333° |
| 2026-04-30 11:12 | 58.83864 | 14.00436 | 28164 ft | 377 kts | 332° |
| 2026-04-30 11:12 | 58.86130 | 13.97991 | 27947 ft | 375 kts | 332° |
| 2026-04-30 11:12 | 58.88388 | 13.95549 | 27730 ft | 374 kts | 332° |
| 2026-04-30 11:12 | 58.90669 | 13.93080 | 27510 ft | 373 kts | 332° |
| 2026-04-30 11:13 | 58.92913 | 13.90650 | 27296 ft | 372 kts | 332° |
| 2026-04-30 11:13 | 58.95146 | 13.88225 | 27080 ft | 370 kts | 332° |
| 2026-04-30 11:13 | 58.97387 | 13.85788 | 26863 ft | 369 kts | 332° |
| 2026-04-30 11:13 | 58.99603 | 13.83374 | 26674 ft | 368 kts | 332° |
| 2026-04-30 11:14 | 59.01828 | 13.80946 | 26514 ft | 367 kts | 332° |
| 2026-04-30 11:14 | 59.04055 | 13.78514 | 26354 ft | 367 kts | 332° |
| 2026-04-30 11:14 | 59.06276 | 13.76085 | 26192 ft | 366 kts | 332° |
| 2026-04-30 11:14 | 59.08458 | 13.73696 | 26034 ft | 364 kts | 332° |
| 2026-04-30 11:15 | 59.10672 | 13.71268 | 25881 ft | 364 kts | 332° |
| 2026-04-30 11:15 | 59.12859 | 13.68866 | 25750 ft | 363 kts | 332° |
| 2026-04-30 11:15 | 59.15049 | 13.66457 | 25617 ft | 361 kts | 332° |
| 2026-04-30 11:15 | 59.17254 | 13.64030 | 25483 ft | 361 kts | 332° |
| 2026-04-30 11:16 | 59.19414 | 13.61646 | 25351 ft | 360 kts | 332° |
| 2026-04-30 11:16 | 59.21582 | 13.59251 | 25218 ft | 360 kts | 332° |
| 2026-04-30 11:16 | 59.23765 | 13.56837 | 25086 ft | 359 kts | 332° |
| 2026-04-30 11:16 | 59.25929 | 13.54438 | 24952 ft | 358 kts | 332° |
| 2026-04-30 11:17 | 59.28095 | 13.52035 | 24812 ft | 357 kts | 332° |
| 2026-04-30 11:17 | 59.30232 | 13.49661 | 24681 ft | 356 kts | 332° |
| 2026-04-30 11:17 | 59.32362 | 13.47291 | 24545 ft | 355 kts | 332° |
| 2026-04-30 11:17 | 59.34509 | 13.44899 | 24414 ft | 354 kts | 332° |
| 2026-04-30 11:18 | 59.36654 | 13.42503 | 24275 ft | 353 kts | 332° |
| 2026-04-30 11:18 | 59.40899 | 13.37754 | 23990 ft | 353 kts | 332° |
| 2026-04-30 11:18 | 59.43011 | 13.35388 | 23748 ft | 353 kts | 332° |
| 2026-04-30 11:19 | 59.45162 | 13.32972 | 23472 ft | 350 kts | 331° |
| 2026-04-30 11:19 | 59.47237 | 13.30637 | 23205 ft | 347 kts | 331° |
| 2026-04-30 11:19 | 59.49321 | 13.28289 | 22939 ft | 345 kts | 331° |
| 2026-04-30 11:19 | 59.51399 | 13.25947 | 22673 ft | 345 kts | 331° |
| 2026-04-30 11:20 | 59.53480 | 13.23598 | 22406 ft | 343 kts | 331° |
| 2026-04-30 11:20 | 59.55523 | 13.21287 | 22143 ft | 341 kts | 331° |
| 2026-04-30 11:20 | 59.57578 | 13.18959 | 21847 ft | 340 kts | 331° |
| 2026-04-30 11:20 | 59.59611 | 13.16654 | 21560 ft | 338 kts | 331° |
| 2026-04-30 11:21 | 59.61625 | 13.14365 | 21278 ft | 330 kts | 331° |
| 2026-04-30 11:21 | 59.63591 | 13.12128 | 20974 ft | 322 kts | 331° |
| 2026-04-30 11:21 | 59.65518 | 13.09935 | 20689 ft | 319 kts | 332° |
| 2026-04-30 11:21 | 59.67413 | 13.07775 | 20409 ft | 318 kts | 331° |
| 2026-04-30 11:22 | 59.69340 | 13.05577 | 20121 ft | 318 kts | 332° |
| 2026-04-30 11:22 | 59.71241 | 13.03409 | 19831 ft | 316 kts | 332° |
| 2026-04-30 11:22 | 59.73120 | 13.01259 | 19539 ft | 314 kts | 331° |
| 2026-04-30 11:22 | 59.75010 | 12.99092 | 19250 ft | 313 kts | 331° |
| 2026-04-30 11:23 | 59.76875 | 12.96949 | 18985 ft | 312 kts | 331° |
| 2026-04-30 11:23 | 59.78751 | 12.94791 | 18685 ft | 310 kts | 331° |
| 2026-04-30 11:23 | 59.82442 | 12.90537 | 18103 ft | 306 kts | 331° |
| 2026-04-30 11:24 | 59.84273 | 12.88424 | 17833 ft | 304 kts | 331° |
| 2026-04-30 11:24 | 59.86106 | 12.86308 | 17551 ft | 304 kts | 331° |
| 2026-04-30 11:24 | 59.87915 | 12.84216 | 17264 ft | 304 kts | 331° |
| 2026-04-30 11:25 | 59.91542 | 12.80013 | 16686 ft | 302 kts | 331° |
| 2026-04-30 11:25 | 59.93357 | 12.77906 | 16405 ft | 301 kts | 331° |
| 2026-04-30 11:25 | 59.96898 | 12.73548 | 15833 ft | 300 kts | 323° |
| 2026-04-30 11:26 | 59.98987 | 12.66579 | 15321 ft | 298 kts | 285° |
| 2026-04-30 11:26 | 59.99316 | 12.62546 | 15074 ft | 297 kts | 283° |
| 2026-04-30 11:26 | 59.99638 | 12.58497 | 14832 ft | 298 kts | 284° |
| 2026-04-30 11:27 | 59.99979 | 12.54402 | 14575 ft | 298 kts | 284° |
| 2026-04-30 11:27 | 60.00324 | 12.50354 | 14314 ft | 295 kts | 284° |
| 2026-04-30 11:27 | 60.00670 | 12.46310 | 14068 ft | 294 kts | 284° |
| 2026-04-30 11:27 | 60.01043 | 12.42340 | 13813 ft | 293 kts | 288° |
| 2026-04-30 11:28 | 60.03074 | 12.35682 | 13321 ft | 281 kts | 321° |
| 2026-04-30 11:28 | 60.04552 | 12.33165 | 13077 ft | 282 kts | 321° |
| 2026-04-30 11:28 | 60.06044 | 12.30640 | 12828 ft | 280 kts | 320° |
| 2026-04-30 11:29 | 60.07518 | 12.28080 | 12589 ft | 279 kts | 320° |
| 2026-04-30 11:29 | 60.08958 | 12.25531 | 12344 ft | 279 kts | 319° |
| 2026-04-30 11:29 | 60.11880 | 12.20451 | 11852 ft | 277 kts | 320° |
| 2026-04-30 11:30 | 60.14772 | 12.15475 | 11357 ft | 275 kts | 320° |
| 2026-04-30 11:30 | 60.16218 | 12.12975 | 11108 ft | 274 kts | 319° |
| 2026-04-30 11:30 | 60.17654 | 12.10485 | 10857 ft | 273 kts | 319° |
| 2026-04-30 11:31 | 60.19072 | 12.08022 | 10598 ft | 272 kts | 319° |
| 2026-04-30 11:31 | 60.20511 | 12.05519 | 10341 ft | 272 kts | 319° |
| 2026-04-30 11:31 | 60.21925 | 12.03058 | 10097 ft | 271 kts | 319° |
| 2026-04-30 11:31 | 60.23350 | 12.00573 | 9844 ft | 270 kts | 319° |
| 2026-04-30 11:32 | 60.24772 | 11.98092 | 9597 ft | 270 kts | 319° |
| 2026-04-30 11:32 | 60.26139 | 11.95549 | 9350 ft | 269 kts | 313° |
| 2026-04-30 11:32 | 60.27259 | 11.92544 | 9091 ft | 268 kts | 302° |
| 2026-04-30 11:33 | 60.29068 | 11.86037 | 8625 ft | 265 kts | 299° |
| 2026-04-30 11:33 | 60.29951 | 11.82835 | 8377 ft | 260 kts | 300° |
| 2026-04-30 11:33 | 60.30837 | 11.79709 | 8146 ft | 255 kts | 300° |
| 2026-04-30 11:33 | 60.31728 | 11.76614 | 7897 ft | 254 kts | 300° |
| 2026-04-30 11:34 | 60.32607 | 11.73570 | 7654 ft | 254 kts | 300° |
| 2026-04-30 11:34 | 60.33497 | 11.70486 | 7409 ft | 253 kts | 300° |
| 2026-04-30 11:34 | 60.34373 | 11.67446 | 7175 ft | 253 kts | 300° |
| 2026-04-30 11:34 | 60.35263 | 11.64350 | 6924 ft | 252 kts | 300° |
| 2026-04-30 11:35 | 60.36131 | 11.61325 | 6683 ft | 252 kts | 300° |
| 2026-04-30 11:35 | 60.37007 | 11.58264 | 6433 ft | 251 kts | 300° |
| 2026-04-30 11:35 | 60.37874 | 11.55235 | 6186 ft | 251 kts | 300° |
| 2026-04-30 11:35 | 60.38747 | 11.52178 | 5940 ft | 251 kts | 300° |
| 2026-04-30 11:36 | 60.39606 | 11.49171 | 5692 ft | 247 kts | 300° |
| 2026-04-30 11:36 | 60.40458 | 11.46185 | 5446 ft | 243 kts | 300° |
| 2026-04-30 11:36 | 60.41293 | 11.43236 | 5205 ft | 239 kts | 298° |
| 2026-04-30 11:36 | 60.41919 | 11.40157 | 4957 ft | 235 kts | 281° |
| 2026-04-30 11:37 | 60.41878 | 11.36945 | 4722 ft | 232 kts | 258° |
| 2026-04-30 11:37 | 60.41437 | 11.33844 | 4491 ft | 228 kts | 253° |
| 2026-04-30 11:37 | 60.40983 | 11.30770 | 4245 ft | 225 kts | 254° |
| 2026-04-30 11:37 | 60.40575 | 11.27745 | 4019 ft | 221 kts | 254° |
| 2026-04-30 11:38 | 60.40013 | 11.24949 | 3973 ft | 209 kts | 235° |
| 2026-04-30 11:38 | 60.38904 | 11.23191 | 3992 ft | 206 kts | 202° |
| 2026-04-30 11:38 | 60.37593 | 11.22371 | 3980 ft | 193 kts | 197° |
| 2026-04-30 11:38 | 60.36315 | 11.21663 | 3960 ft | 186 kts | 197° |
| 2026-04-30 11:39 | 60.35083 | 11.20940 | 3756 ft | 187 kts | 198° |
| 2026-04-30 11:39 | 60.33840 | 11.20206 | 3481 ft | 186 kts | 197° |
| 2026-04-30 11:39 | 60.32609 | 11.19490 | 3230 ft | 183 kts | 197° |
| 2026-04-30 11:39 | 60.31394 | 11.18784 | 2992 ft | 177 kts | 197° |
| 2026-04-30 11:40 | 60.30252 | 11.18120 | 2737 ft | 168 kts | 196° |
| 2026-04-30 11:40 | 60.29179 | 11.17496 | 2539 ft | 156 kts | 196° |
| 2026-04-30 11:40 | 60.28178 | 11.16913 | 2311 ft | 146 kts | 195° |
| 2026-04-30 11:40 | 60.27200 | 11.16344 | 2142 ft | 147 kts | 195° |
| 2026-04-30 11:41 | 60.26225 | 11.15779 | 1938 ft | 145 kts | 195° |
| 2026-04-30 11:41 | 60.25265 | 11.15231 | 1743 ft | 143 kts | 196° |
| 2026-04-30 11:41 | 60.24306 | 11.14657 | 1513 ft | 143 kts | 193° |
| 2026-04-30 11:41 | 60.23357 | 11.14114 | 1342 ft | 142 kts | 193° |
| 2026-04-30 11:42 | 60.22404 | 11.13588 | 1197 ft | 143 kts | 196° |
| 2026-04-30 11:42 | 60.21446 | 11.13015 | 1004 ft | 142 kts | 194° |
| 2026-04-30 11:42 | 60.20500 | 11.12457 | 796 ft | 144 kts | 193° |
| 2026-04-30 11:42 | 60.19541 | 11.11915 | 688 ft | 130 kts | 195° |
| 2026-04-30 11:43 | 60.18893 | 11.11540 | 688 ft | 65 kts | 195° |
| 2026-04-30 11:43 | 60.18544 | 11.11308 | 688 ft | 45 kts | 208° |
| 2026-04-30 11:43 | 60.18437 | 11.11053 | 688 ft | 13 kts | 277° |
| 2026-04-30 11:43 | 60.18444 | 11.10993 | 688 ft | 1 kts | 285° |
| 2026-04-30 11:44 | 60.18447 | 11.10973 | 688 ft | 1 kts | 285° |
| 2026-04-30 11:44 | 60.18465 | 11.10924 | 688 ft | 7 kts | 345° |
| 2026-04-30 11:44 | 60.18528 | 11.10934 | 688 ft | 10 kts | 15° |
| 2026-04-30 11:44 | 60.18605 | 11.10979 | 688 ft | 13 kts | 16° |
| 2026-04-30 11:45 | 60.18715 | 11.11044 | 688 ft | 19 kts | 17° |
| 2026-04-30 11:45 | 60.18849 | 11.11121 | 688 ft | 20 kts | 15° |
| 2026-04-30 11:45 | 60.18979 | 11.11196 | 688 ft | 19 kts | 16° |
| 2026-04-30 11:45 | 60.19106 | 11.11269 | 688 ft | 18 kts | 15° |
| 2026-04-30 11:46 | 60.19229 | 11.11340 | 688 ft | 18 kts | 16° |
| 2026-04-30 11:46 | 60.19341 | 11.11406 | 688 ft | 15 kts | 15° |
| 2026-04-30 11:46 | 60.19410 | 11.11303 | 688 ft | 14 kts | 285° |
| 2026-04-30 11:46 | 60.19436 | 11.11117 | 688 ft | 13 kts | 285° |
| 2026-04-30 11:47 | 60.19461 | 11.10940 | 688 ft | 13 kts | 286° |
| 2026-04-30 11:47 | 60.19485 | 11.10769 | 688 ft | 12 kts | 285° |
| 2026-04-30 11:47 | 60.19509 | 11.10606 | 688 ft | 11 kts | 287° |
| 2026-04-30 11:47 | 60.19531 | 11.10449 | 688 ft | 10 kts | 275° |
| 2026-04-30 11:48 | 60.19481 | 11.10373 | 688 ft | 8 kts | 195° |
| 2026-04-30 11:48 | 60.19445 | 11.10354 | 688 ft | 0 kts | 196° |